sensor_id;sensor_type;location;lat;lon;timestamp;P1;durP1;ratioP1;P2;durP2;ratioP2
78581;SDS011;67878;46.242;5.974;2023-04-09T00:01:09;2.58;;;2.03;;
78581;SDS011;67878;46.242;5.974;2023-04-09T00:03:35;2.55;;;2.10;;
78581;SDS011;67878;46.242;5.974;2023-04-09T00:06:02;3.28;;;2.00;;
78581;SDS011;67878;46.242;5.974;2023-04-09T00:08:28;3.05;;;1.85;;
78581;SDS011;67878;46.242;5.974;2023-04-09T00:10:54;3.08;;;1.95;;
78581;SDS011;67878;46.242;5.974;2023-04-09T00:13:22;2.92;;;2.03;;
78581;SDS011;67878;46.242;5.974;2023-04-09T00:15:47;2.65;;;1.88;;
78581;SDS011;67878;46.242;5.974;2023-04-09T00:18:13;2.58;;;1.92;;
78581;SDS011;67878;46.242;5.974;2023-04-09T00:20:39;3.70;;;2.20;;
78581;SDS011;67878;46.242;5.974;2023-04-09T00:23:05;4.30;;;2.08;;
78581;SDS011;67878;46.242;5.974;2023-04-09T00:25:31;3.20;;;2.03;;
78581;SDS011;67878;46.242;5.974;2023-04-09T00:27:56;3.40;;;2.00;;
78581;SDS011;67878;46.242;5.974;2023-04-09T00:30:21;3.97;;;2.35;;
78581;SDS011;67878;46.242;5.974;2023-04-09T00:32:47;2.55;;;2.03;;
78581;SDS011;67878;46.242;5.974;2023-04-09T00:35:13;2.92;;;1.90;;
78581;SDS011;67878;46.242;5.974;2023-04-09T00:37:39;2.08;;;1.65;;
78581;SDS011;67878;46.242;5.974;2023-04-09T00:40:05;2.08;;;1.83;;
78581;SDS011;67878;46.242;5.974;2023-04-09T00:42:34;2.35;;;1.70;;
78581;SDS011;67878;46.242;5.974;2023-04-09T00:45:01;2.47;;;2.13;;
78581;SDS011;67878;46.242;5.974;2023-04-09T00:47:33;2.97;;;1.90;;
78581;SDS011;67878;46.242;5.974;2023-04-09T00:49:59;2.20;;;1.70;;
78581;SDS011;67878;46.242;5.974;2023-04-09T00:52:25;2.80;;;1.67;;
78581;SDS011;67878;46.242;5.974;2023-04-09T00:54:51;3.00;;;2.45;;
78581;SDS011;67878;46.242;5.974;2023-04-09T00:57:17;2.58;;;2.08;;
78581;SDS011;67878;46.242;5.974;2023-04-09T00:59:43;2.50;;;1.80;;
78581;SDS011;67878;46.242;5.974;2023-04-09T01:02:09;2.15;;;1.70;;
78581;SDS011;67878;46.242;5.974;2023-04-09T01:04:35;2.10;;;1.73;;
78581;SDS011;67878;46.242;5.974;2023-04-09T01:07:15;3.05;;;2.00;;
78581;SDS011;67878;46.242;5.974;2023-04-09T01:09:47;3.28;;;1.80;;
78581;SDS011;67878;46.242;5.974;2023-04-09T01:12:25;2.28;;;1.70;;
78581;SDS011;67878;46.242;5.974;2023-04-09T01:15:01;2.42;;;1.70;;
78581;SDS011;67878;46.242;5.974;2023-04-09T01:17:34;3.28;;;1.90;;
78581;SDS011;67878;46.242;5.974;2023-04-09T01:20:11;2.55;;;1.88;;
78581;SDS011;67878;46.242;5.974;2023-04-09T01:28:13;1.70;;;1.60;;
78581;SDS011;67878;46.242;5.974;2023-04-09T01:30:44;3.30;;;1.75;;
78581;SDS011;67878;46.242;5.974;2023-04-09T01:33:12;2.28;;;1.80;;
78581;SDS011;67878;46.242;5.974;2023-04-09T01:35:42;2.38;;;1.60;;
78581;SDS011;67878;46.242;5.974;2023-04-09T01:38:09;2.65;;;1.67;;
78581;SDS011;67878;46.242;5.974;2023-04-09T01:40:35;2.78;;;2.22;;
78581;SDS011;67878;46.242;5.974;2023-04-09T01:43:01;1.77;;;1.48;;
78581;SDS011;67878;46.242;5.974;2023-04-09T01:45:27;3.35;;;1.67;;
78581;SDS011;67878;46.242;5.974;2023-04-09T01:47:53;2.33;;;1.77;;
78581;SDS011;67878;46.242;5.974;2023-04-09T01:50:20;2.22;;;1.73;;
78581;SDS011;67878;46.242;5.974;2023-04-09T01:52:46;2.25;;;1.67;;
78581;SDS011;67878;46.242;5.974;2023-04-09T01:55:12;2.67;;;1.95;;
78581;SDS011;67878;46.242;5.974;2023-04-09T01:57:37;2.53;;;1.95;;
78581;SDS011;67878;46.242;5.974;2023-04-09T02:00:03;1.70;;;1.40;;
78581;SDS011;67878;46.242;5.974;2023-04-09T02:02:33;3.75;;;1.70;;
78581;SDS011;67878;46.242;5.974;2023-04-09T02:05:02;2.20;;;1.60;;
78581;SDS011;67878;46.242;5.974;2023-04-09T02:10:09;2.35;;;1.60;;
78581;SDS011;67878;46.242;5.974;2023-04-09T02:12:36;2.42;;;1.55;;
78581;SDS011;67878;46.242;5.974;2023-04-09T02:15:01;2.05;;;1.80;;
78581;SDS011;67878;46.242;5.974;2023-04-09T02:17:27;3.03;;;1.70;;
78581;SDS011;67878;46.242;5.974;2023-04-09T02:19:53;2.20;;;1.80;;
78581;SDS011;67878;46.242;5.974;2023-04-09T02:22:18;2.40;;;1.60;;
78581;SDS011;67878;46.242;5.974;2023-04-09T02:24:44;1.98;;;1.60;;
78581;SDS011;67878;46.242;5.974;2023-04-09T02:27:10;3.83;;;1.70;;
78581;SDS011;67878;46.242;5.974;2023-04-09T02:29:37;2.60;;;1.70;;
78581;SDS011;67878;46.242;5.974;2023-04-09T02:32:05;2.10;;;1.90;;
78581;SDS011;67878;46.242;5.974;2023-04-09T02:34:32;2.47;;;1.70;;
78581;SDS011;67878;46.242;5.974;2023-04-09T02:37:00;2.22;;;1.70;;
78581;SDS011;67878;46.242;5.974;2023-04-09T02:39:32;2.28;;;1.63;;
78581;SDS011;67878;46.242;5.974;2023-04-09T02:42:04;2.75;;;1.50;;
78581;SDS011;67878;46.242;5.974;2023-04-09T02:44:33;1.70;;;1.60;;
78581;SDS011;67878;46.242;5.974;2023-04-09T02:47:00;2.00;;;1.50;;
78581;SDS011;67878;46.242;5.974;2023-04-09T02:49:25;2.50;;;1.40;;
78581;SDS011;67878;46.242;5.974;2023-04-09T02:51:51;1.70;;;1.50;;
78581;SDS011;67878;46.242;5.974;2023-04-09T02:54:16;1.65;;;1.55;;
78581;SDS011;67878;46.242;5.974;2023-04-09T02:56:42;2.08;;;1.50;;
78581;SDS011;67878;46.242;5.974;2023-04-09T02:59:07;1.70;;;1.60;;
78581;SDS011;67878;46.242;5.974;2023-04-09T03:01:32;2.22;;;1.40;;
78581;SDS011;67878;46.242;5.974;2023-04-09T03:03:58;2.33;;;1.60;;
78581;SDS011;67878;46.242;5.974;2023-04-09T03:06:25;1.75;;;1.50;;
78581;SDS011;67878;46.242;5.974;2023-04-09T03:08:51;2.15;;;1.70;;
78581;SDS011;67878;46.242;5.974;2023-04-09T03:11:16;2.40;;;1.90;;
78581;SDS011;67878;46.242;5.974;2023-04-09T03:13:42;2.17;;;1.33;;
78581;SDS011;67878;46.242;5.974;2023-04-09T03:16:07;1.95;;;1.75;;
78581;SDS011;67878;46.242;5.974;2023-04-09T03:18:34;1.90;;;1.50;;
78581;SDS011;67878;46.242;5.974;2023-04-09T03:21:03;2.60;;;1.85;;
78581;SDS011;67878;46.242;5.974;2023-04-09T03:23:30;1.75;;;1.60;;
78581;SDS011;67878;46.242;5.974;2023-04-09T03:26:02;2.05;;;1.42;;
78581;SDS011;67878;46.242;5.974;2023-04-09T03:28:28;2.05;;;1.52;;
78581;SDS011;67878;46.242;5.974;2023-04-09T03:30:54;2.50;;;1.52;;
78581;SDS011;67878;46.242;5.974;2023-04-09T03:33:19;2.33;;;1.50;;
78581;SDS011;67878;46.242;5.974;2023-04-09T03:35:44;2.15;;;1.45;;
78581;SDS011;67878;46.242;5.974;2023-04-09T03:38:10;2.47;;;1.50;;
78581;SDS011;67878;46.242;5.974;2023-04-09T03:40:35;1.73;;;1.40;;
78581;SDS011;67878;46.242;5.974;2023-04-09T03:43:00;1.73;;;1.55;;
78581;SDS011;67878;46.242;5.974;2023-04-09T03:45:26;1.75;;;1.60;;
78581;SDS011;67878;46.242;5.974;2023-04-09T03:47:53;2.42;;;1.40;;
78581;SDS011;67878;46.242;5.974;2023-04-09T03:50:19;1.80;;;1.50;;
78581;SDS011;67878;46.242;5.974;2023-04-09T03:52:47;1.70;;;1.60;;
78581;SDS011;67878;46.242;5.974;2023-04-09T03:55:15;1.95;;;1.65;;
78581;SDS011;67878;46.242;5.974;2023-04-09T03:57:45;2.03;;;1.55;;
78581;SDS011;67878;46.242;5.974;2023-04-09T04:00:16;2.92;;;1.60;;
78581;SDS011;67878;46.242;5.974;2023-04-09T04:02:43;1.65;;;1.55;;
78581;SDS011;67878;46.242;5.974;2023-04-09T04:05:11;1.80;;;1.40;;
78581;SDS011;67878;46.242;5.974;2023-04-09T04:07:40;2.78;;;1.80;;
78581;SDS011;67878;46.242;5.974;2023-04-09T04:10:10;1.58;;;1.48;;
78581;SDS011;67878;46.242;5.974;2023-04-09T04:12:37;1.67;;;1.58;;
78581;SDS011;67878;46.242;5.974;2023-04-09T04:15:07;1.73;;;1.45;;
78581;SDS011;67878;46.242;5.974;2023-04-09T04:22:27;2.17;;;1.63;;
78581;SDS011;67878;46.242;5.974;2023-04-09T04:24:55;2.55;;;1.50;;
78581;SDS011;67878;46.242;5.974;2023-04-09T04:27:22;2.40;;;1.80;;
78581;SDS011;67878;46.242;5.974;2023-04-09T04:29:50;1.85;;;1.50;;
78581;SDS011;67878;46.242;5.974;2023-04-09T04:32:19;1.48;;;1.35;;
78581;SDS011;67878;46.242;5.974;2023-04-09T04:34:47;1.77;;;1.67;;
78581;SDS011;67878;46.242;5.974;2023-04-09T04:37:18;2.10;;;1.60;;
78581;SDS011;67878;46.242;5.974;2023-04-09T04:39:48;2.53;;;1.75;;
78581;SDS011;67878;46.242;5.974;2023-04-09T04:42:17;2.03;;;1.60;;
78581;SDS011;67878;46.242;5.974;2023-04-09T04:44:48;1.95;;;1.65;;
78581;SDS011;67878;46.242;5.974;2023-04-09T04:47:17;2.42;;;1.50;;
78581;SDS011;67878;46.242;5.974;2023-04-09T04:49:51;2.03;;;1.50;;
78581;SDS011;67878;46.242;5.974;2023-04-09T04:52:24;2.10;;;1.45;;
78581;SDS011;67878;46.242;5.974;2023-04-09T04:54:52;2.03;;;1.80;;
78581;SDS011;67878;46.242;5.974;2023-04-09T04:57:21;1.83;;;1.35;;
78581;SDS011;67878;46.242;5.974;2023-04-09T04:59:51;2.10;;;1.83;;
78581;SDS011;67878;46.242;5.974;2023-04-09T05:02:20;1.92;;;1.60;;
78581;SDS011;67878;46.242;5.974;2023-04-09T05:04:49;2.67;;;1.85;;
78581;SDS011;67878;46.242;5.974;2023-04-09T05:07:16;2.25;;;1.63;;
78581;SDS011;67878;46.242;5.974;2023-04-09T05:09:42;1.75;;;1.52;;
78581;SDS011;67878;46.242;5.974;2023-04-09T05:12:11;1.70;;;1.58;;
78581;SDS011;67878;46.242;5.974;2023-04-09T05:14:42;2.13;;;1.60;;
78581;SDS011;67878;46.242;5.974;2023-04-09T05:17:14;1.70;;;1.60;;
78581;SDS011;67878;46.242;5.974;2023-04-09T05:19:49;1.65;;;1.50;;
78581;SDS011;67878;46.242;5.974;2023-04-09T05:22:18;1.70;;;1.60;;
78581;SDS011;67878;46.242;5.974;2023-04-09T05:24:50;2.03;;;1.88;;
78581;SDS011;67878;46.242;5.974;2023-04-09T05:27:19;2.20;;;1.52;;
78581;SDS011;67878;46.242;5.974;2023-04-09T05:29:49;1.90;;;1.60;;
78581;SDS011;67878;46.242;5.974;2023-04-09T05:32:22;2.10;;;1.88;;
78581;SDS011;67878;46.242;5.974;2023-04-09T05:34:53;1.95;;;1.60;;
78581;SDS011;67878;46.242;5.974;2023-04-09T05:37:20;2.30;;;1.60;;
78581;SDS011;67878;46.242;5.974;2023-04-09T05:39:47;3.08;;;1.60;;
78581;SDS011;67878;46.242;5.974;2023-04-09T05:42:16;2.47;;;1.73;;
78581;SDS011;67878;46.242;5.974;2023-04-09T05:44:44;2.10;;;1.80;;
78581;SDS011;67878;46.242;5.974;2023-04-09T05:47:14;2.33;;;1.48;;
78581;SDS011;67878;46.242;5.974;2023-04-09T05:49:42;1.75;;;1.48;;
78581;SDS011;67878;46.242;5.974;2023-04-09T05:52:11;2.50;;;1.80;;
78581;SDS011;67878;46.242;5.974;2023-04-09T05:54:41;1.77;;;1.40;;
78581;SDS011;67878;46.242;5.974;2023-04-09T05:57:13;1.60;;;1.35;;
78581;SDS011;67878;46.242;5.974;2023-04-09T05:59:42;1.88;;;1.52;;
78581;SDS011;67878;46.242;5.974;2023-04-09T06:02:11;1.60;;;1.50;;
78581;SDS011;67878;46.242;5.974;2023-04-09T06:04:39;1.80;;;1.60;;
78581;SDS011;67878;46.242;5.974;2023-04-09T06:07:07;1.80;;;1.70;;
78581;SDS011;67878;46.242;5.974;2023-04-09T06:09:40;2.13;;;1.60;;
78581;SDS011;67878;46.242;5.974;2023-04-09T06:12:13;2.42;;;1.67;;
78581;SDS011;67878;46.242;5.974;2023-04-09T06:14:42;2.17;;;2.03;;
78581;SDS011;67878;46.242;5.974;2023-04-09T06:17:15;1.95;;;1.67;;
78581;SDS011;67878;46.242;5.974;2023-04-09T06:22:18;1.98;;;1.77;;
78581;SDS011;67878;46.242;5.974;2023-04-09T06:24:49;1.60;;;1.50;;
78581;SDS011;67878;46.242;5.974;2023-04-09T06:27:18;1.83;;;1.73;;
78581;SDS011;67878;46.242;5.974;2023-04-09T06:29:48;1.70;;;1.60;;
78581;SDS011;67878;46.242;5.974;2023-04-09T06:32:20;2.25;;;1.70;;
78581;SDS011;67878;46.242;5.974;2023-04-09T06:34:49;1.90;;;1.70;;
78581;SDS011;67878;46.242;5.974;2023-04-09T06:37:23;1.60;;;1.50;;
78581;SDS011;67878;46.242;5.974;2023-04-09T06:39:52;2.40;;;2.00;;
78581;SDS011;67878;46.242;5.974;2023-04-09T06:42:21;2.00;;;1.75;;
78581;SDS011;67878;46.242;5.974;2023-04-09T06:44:48;2.90;;;1.55;;
78581;SDS011;67878;46.242;5.974;2023-04-09T06:47:14;1.83;;;1.42;;
78581;SDS011;67878;46.242;5.974;2023-04-09T06:49:41;2.10;;;1.55;;
78581;SDS011;67878;46.242;5.974;2023-04-09T06:52:09;1.98;;;1.80;;
78581;SDS011;67878;46.242;5.974;2023-04-09T06:54:37;4.40;;;1.80;;
78581;SDS011;67878;46.242;5.974;2023-04-09T06:57:07;2.00;;;1.80;;
78581;SDS011;67878;46.242;5.974;2023-04-09T06:59:35;2.33;;;1.65;;
78581;SDS011;67878;46.242;5.974;2023-04-09T07:02:00;2.78;;;1.80;;
78581;SDS011;67878;46.242;5.974;2023-04-09T07:04:25;3.17;;;1.58;;
78581;SDS011;67878;46.242;5.974;2023-04-09T07:06:51;2.30;;;1.70;;
78581;SDS011;67878;46.242;5.974;2023-04-09T07:09:19;3.97;;;1.90;;
78581;SDS011;67878;46.242;5.974;2023-04-09T07:11:45;3.80;;;1.98;;
78581;SDS011;67878;46.242;5.974;2023-04-09T07:14:12;1.55;;;1.40;;
78581;SDS011;67878;46.242;5.974;2023-04-09T07:16:37;2.10;;;1.90;;
78581;SDS011;67878;46.242;5.974;2023-04-09T07:19:02;1.80;;;1.70;;
78581;SDS011;67878;46.242;5.974;2023-04-09T07:21:28;1.98;;;1.77;;
78581;SDS011;67878;46.242;5.974;2023-04-09T07:23:55;3.92;;;1.80;;
78581;SDS011;67878;46.242;5.974;2023-04-09T07:26:31;2.63;;;1.83;;
78581;SDS011;67878;46.242;5.974;2023-04-09T07:29:00;2.25;;;2.05;;
78581;SDS011;67878;46.242;5.974;2023-04-09T07:31:27;1.95;;;1.75;;
78581;SDS011;67878;46.242;5.974;2023-04-09T07:33:59;1.75;;;1.65;;
78581;SDS011;67878;46.242;5.974;2023-04-09T07:36:28;4.55;;;1.80;;
78581;SDS011;67878;46.242;5.974;2023-04-09T07:38:53;3.78;;;1.85;;
78581;SDS011;67878;46.242;5.974;2023-04-09T07:41:19;2.45;;;1.92;;
78581;SDS011;67878;46.242;5.974;2023-04-09T07:43:44;3.67;;;1.90;;
78581;SDS011;67878;46.242;5.974;2023-04-09T07:46:10;2.92;;;2.00;;
78581;SDS011;67878;46.242;5.974;2023-04-09T07:48:35;2.78;;;2.15;;
78581;SDS011;67878;46.242;5.974;2023-04-09T07:51:01;2.65;;;2.00;;
78581;SDS011;67878;46.242;5.974;2023-04-09T07:53:26;3.08;;;2.22;;
78581;SDS011;67878;46.242;5.974;2023-04-09T07:55:52;3.75;;;2.03;;
78581;SDS011;67878;46.242;5.974;2023-04-09T07:58:18;3.28;;;1.95;;
78581;SDS011;67878;46.242;5.974;2023-04-09T08:00:44;2.83;;;2.10;;
78581;SDS011;67878;46.242;5.974;2023-04-09T08:03:10;2.33;;;1.67;;
78581;SDS011;67878;46.242;5.974;2023-04-09T08:05:35;5.82;;;2.05;;
78581;SDS011;67878;46.242;5.974;2023-04-09T08:08:02;3.35;;;2.10;;
78581;SDS011;67878;46.242;5.974;2023-04-09T08:10:29;2.25;;;2.05;;
78581;SDS011;67878;46.242;5.974;2023-04-09T08:12:57;4.55;;;2.65;;
78581;SDS011;67878;46.242;5.974;2023-04-09T08:15:22;2.92;;;2.63;;
78581;SDS011;67878;46.242;5.974;2023-04-09T08:17:53;10.02;;;3.53;;
78581;SDS011;67878;46.242;5.974;2023-04-09T08:20:22;12.48;;;3.78;;
78581;SDS011;67878;46.242;5.974;2023-04-09T08:22:49;8.18;;;3.58;;
78581;SDS011;67878;46.242;5.974;2023-04-09T08:25:15;9.48;;;3.42;;
78581;SDS011;67878;46.242;5.974;2023-04-09T08:27:40;8.95;;;5.22;;
78581;SDS011;67878;46.242;5.974;2023-04-09T08:30:06;7.72;;;5.28;;
78581;SDS011;67878;46.242;5.974;2023-04-09T08:32:32;5.53;;;3.15;;
78581;SDS011;67878;46.242;5.974;2023-04-09T08:34:57;6.47;;;3.40;;
78581;SDS011;67878;46.242;5.974;2023-04-09T08:37:22;5.53;;;3.55;;
78581;SDS011;67878;46.242;5.974;2023-04-09T08:39:54;9.98;;;8.63;;
78581;SDS011;67878;46.242;5.974;2023-04-09T08:42:25;6.72;;;5.07;;
78581;SDS011;67878;46.242;5.974;2023-04-09T08:44:51;6.47;;;3.67;;
78581;SDS011;67878;46.242;5.974;2023-04-09T08:47:16;5.80;;;3.60;;
78581;SDS011;67878;46.242;5.974;2023-04-09T08:49:43;5.30;;;3.60;;
78581;SDS011;67878;46.242;5.974;2023-04-09T08:52:08;4.70;;;3.00;;
78581;SDS011;67878;46.242;5.974;2023-04-09T08:54:35;5.22;;;3.25;;
78581;SDS011;67878;46.242;5.974;2023-04-09T08:57:06;5.78;;;3.10;;
78581;SDS011;67878;46.242;5.974;2023-04-09T08:59:31;7.47;;;5.85;;
78581;SDS011;67878;46.242;5.974;2023-04-09T09:02:08;6.50;;;3.72;;
78581;SDS011;67878;46.242;5.974;2023-04-09T09:04:47;4.13;;;3.03;;
78581;SDS011;67878;46.242;5.974;2023-04-09T09:07:14;4.40;;;3.33;;
78581;SDS011;67878;46.242;5.974;2023-04-09T09:09:49;7.05;;;3.28;;
78581;SDS011;67878;46.242;5.974;2023-04-09T09:12:36;4.50;;;3.00;;
78581;SDS011;67878;46.242;5.974;2023-04-09T09:15:27;7.28;;;3.38;;
78581;SDS011;67878;46.242;5.974;2023-04-09T09:17:54;8.73;;;6.97;;
78581;SDS011;67878;46.242;5.974;2023-04-09T09:20:20;7.90;;;7.10;;
78581;SDS011;67878;46.242;5.974;2023-04-09T09:22:47;9.70;;;8.70;;
78581;SDS011;67878;46.242;5.974;2023-04-09T09:25:16;6.43;;;4.97;;
78581;SDS011;67878;46.242;5.974;2023-04-09T09:27:43;6.47;;;4.40;;
78581;SDS011;67878;46.242;5.974;2023-04-09T09:30:18;6.45;;;4.13;;
78581;SDS011;67878;46.242;5.974;2023-04-09T09:32:45;5.57;;;3.60;;
78581;SDS011;67878;46.242;5.974;2023-04-09T09:35:12;6.85;;;3.50;;
78581;SDS011;67878;46.242;5.974;2023-04-09T09:37:44;4.05;;;3.22;;
78581;SDS011;67878;46.242;5.974;2023-04-09T09:40:10;4.65;;;3.13;;
78581;SDS011;67878;46.242;5.974;2023-04-09T09:42:55;4.95;;;2.90;;
78581;SDS011;67878;46.242;5.974;2023-04-09T09:45:23;5.45;;;3.13;;
78581;SDS011;67878;46.242;5.974;2023-04-09T09:47:51;3.85;;;3.00;;
78581;SDS011;67878;46.242;5.974;2023-04-09T09:50:22;4.10;;;2.70;;
78581;SDS011;67878;46.242;5.974;2023-04-09T09:52:57;3.38;;;2.60;;
78581;SDS011;67878;46.242;5.974;2023-04-09T09:55:31;8.10;;;3.35;;
78581;SDS011;67878;46.242;5.974;2023-04-09T09:57:57;8.10;;;6.82;;
78581;SDS011;67878;46.242;5.974;2023-04-09T10:00:26;21.55;;;10.30;;
78581;SDS011;67878;46.242;5.974;2023-04-09T10:02:55;12.00;;;6.50;;
78581;SDS011;67878;46.242;5.974;2023-04-09T10:05:23;14.30;;;7.28;;
78581;SDS011;67878;46.242;5.974;2023-04-09T10:07:52;18.73;;;6.95;;
78581;SDS011;67878;46.242;5.974;2023-04-09T10:10:20;24.88;;;8.40;;
78581;SDS011;67878;46.242;5.974;2023-04-09T10:12:47;24.90;;;7.40;;
78581;SDS011;67878;46.242;5.974;2023-04-09T10:15:15;34.25;;;11.20;;
78581;SDS011;67878;46.242;5.974;2023-04-09T10:17:43;27.23;;;8.38;;
78581;SDS011;67878;46.242;5.974;2023-04-09T10:23:15;33.58;;;10.48;;
78581;SDS011;67878;46.242;5.974;2023-04-09T10:25:46;35.33;;;11.77;;
78581;SDS011;67878;46.242;5.974;2023-04-09T10:28:14;48.42;;;13.55;;
78581;SDS011;67878;46.242;5.974;2023-04-09T10:30:41;51.28;;;15.50;;
78581;SDS011;67878;46.242;5.974;2023-04-09T10:33:11;51.70;;;15.07;;
78581;SDS011;67878;46.242;5.974;2023-04-09T10:35:55;55.20;;;16.02;;
78581;SDS011;67878;46.242;5.974;2023-04-09T10:41:10;55.78;;;16.38;;
78581;SDS011;67878;46.242;5.974;2023-04-09T10:43:39;54.65;;;15.93;;
78581;SDS011;67878;46.242;5.974;2023-04-09T10:46:06;56.15;;;15.68;;
78581;SDS011;67878;46.242;5.974;2023-04-09T10:49:00;61.63;;;30.02;;
78581;SDS011;67878;46.242;5.974;2023-04-09T10:51:36;59.13;;;29.35;;
78581;SDS011;67878;46.242;5.974;2023-04-09T10:54:03;29.52;;;19.33;;
78581;SDS011;67878;46.242;5.974;2023-04-09T10:59:41;16.50;;;13.35;;
78581;SDS011;67878;46.242;5.974;2023-04-09T11:07:57;27.88;;;17.30;;
78581;SDS011;67878;46.242;5.974;2023-04-09T11:10:23;29.42;;;16.42;;
78581;SDS011;67878;46.242;5.974;2023-04-09T11:12:49;19.10;;;14.02;;
78581;SDS011;67878;46.242;5.974;2023-04-09T11:15:20;20.25;;;14.85;;
78581;SDS011;67878;46.242;5.974;2023-04-09T11:17:46;22.48;;;14.70;;
78581;SDS011;67878;46.242;5.974;2023-04-09T11:20:13;24.45;;;15.63;;
78581;SDS011;67878;46.242;5.974;2023-04-09T11:22:40;22.95;;;14.15;;
78581;SDS011;67878;46.242;5.974;2023-04-09T11:25:05;24.05;;;13.35;;
78581;SDS011;67878;46.242;5.974;2023-04-09T11:27:35;20.38;;;13.50;;
78581;SDS011;67878;46.242;5.974;2023-04-09T11:30:02;21.23;;;12.85;;
78581;SDS011;67878;46.242;5.974;2023-04-09T11:32:29;20.80;;;12.27;;
78581;SDS011;67878;46.242;5.974;2023-04-09T11:34:55;18.92;;;11.20;;
78581;SDS011;67878;46.242;5.974;2023-04-09T11:37:23;15.63;;;10.93;;
78581;SDS011;67878;46.242;5.974;2023-04-09T11:39:48;17.08;;;11.52;;
78581;SDS011;67878;46.242;5.974;2023-04-09T11:42:18;13.32;;;10.55;;
78581;SDS011;67878;46.242;5.974;2023-04-09T11:44:44;11.73;;;9.05;;
78581;SDS011;67878;46.242;5.974;2023-04-09T11:47:10;11.75;;;10.23;;
78581;SDS011;67878;46.242;5.974;2023-04-09T11:49:37;10.50;;;9.00;;
78581;SDS011;67878;46.242;5.974;2023-04-09T11:52:03;11.60;;;10.40;;
78581;SDS011;67878;46.242;5.974;2023-04-09T11:54:32;12.65;;;11.35;;
78581;SDS011;67878;46.242;5.974;2023-04-09T11:56:59;11.13;;;10.02;;
78581;SDS011;67878;46.242;5.974;2023-04-09T11:59:32;11.43;;;10.32;;
78581;SDS011;67878;46.242;5.974;2023-04-09T12:02:04;10.90;;;9.90;;
78581;SDS011;67878;46.242;5.974;2023-04-09T12:04:33;13.75;;;9.45;;
78581;SDS011;67878;46.242;5.974;2023-04-09T12:07:01;11.27;;;10.18;;
78581;SDS011;67878;46.242;5.974;2023-04-09T12:09:29;10.27;;;9.27;;
78581;SDS011;67878;46.242;5.974;2023-04-09T12:11:57;10.05;;;9.15;;
78581;SDS011;67878;46.242;5.974;2023-04-09T12:14:23;9.88;;;8.55;;
78581;SDS011;67878;46.242;5.974;2023-04-09T12:16:51;9.55;;;6.78;;
78581;SDS011;67878;46.242;5.974;2023-04-09T12:19:17;6.28;;;5.78;;
78581;SDS011;67878;46.242;5.974;2023-04-09T12:21:45;5.68;;;5.18;;
78581;SDS011;67878;46.242;5.974;2023-04-09T12:24:11;5.03;;;4.53;;
78581;SDS011;67878;46.242;5.974;2023-04-09T12:26:38;4.22;;;3.65;;
78581;SDS011;67878;46.242;5.974;2023-04-09T12:29:04;3.92;;;3.53;;
78581;SDS011;67878;46.242;5.974;2023-04-09T12:31:32;5.88;;;3.95;;
78581;SDS011;67878;46.242;5.974;2023-04-09T12:33:58;3.60;;;3.30;;
78581;SDS011;67878;46.242;5.974;2023-04-09T12:36:23;3.70;;;3.30;;
78581;SDS011;67878;46.242;5.974;2023-04-09T12:38:50;4.50;;;3.20;;
78581;SDS011;67878;46.242;5.974;2023-04-09T12:41:18;5.32;;;3.45;;
78581;SDS011;67878;46.242;5.974;2023-04-09T12:43:43;3.33;;;2.97;;
78581;SDS011;67878;46.242;5.974;2023-04-09T12:46:09;3.40;;;3.10;;
78581;SDS011;67878;46.242;5.974;2023-04-09T12:48:35;5.00;;;3.15;;
78581;SDS011;67878;46.242;5.974;2023-04-09T12:51:00;4.50;;;3.25;;
78581;SDS011;67878;46.242;5.974;2023-04-09T12:53:26;7.70;;;4.00;;
78581;SDS011;67878;46.242;5.974;2023-04-09T12:55:51;3.92;;;3.45;;
78581;SDS011;67878;46.242;5.974;2023-04-09T12:58:18;5.18;;;3.30;;
78581;SDS011;67878;46.242;5.974;2023-04-09T13:00:47;3.20;;;2.90;;
78581;SDS011;67878;46.242;5.974;2023-04-09T13:03:13;5.28;;;3.15;;
78581;SDS011;67878;46.242;5.974;2023-04-09T13:05:42;4.85;;;3.15;;
78581;SDS011;67878;46.242;5.974;2023-04-09T13:08:11;3.70;;;2.80;;
78581;SDS011;67878;46.242;5.974;2023-04-09T13:10:36;3.72;;;3.08;;
78581;SDS011;67878;46.242;5.974;2023-04-09T13:13:10;3.83;;;3.03;;
78581;SDS011;67878;46.242;5.974;2023-04-09T13:15:39;3.47;;;2.97;;
78581;SDS011;67878;46.242;5.974;2023-04-09T13:18:16;3.70;;;2.92;;
78581;SDS011;67878;46.242;5.974;2023-04-09T13:20:45;3.17;;;2.60;;
78581;SDS011;67878;46.242;5.974;2023-04-09T13:23:17;3.85;;;2.90;;
78581;SDS011;67878;46.242;5.974;2023-04-09T13:25:47;2.65;;;2.45;;
78581;SDS011;67878;46.242;5.974;2023-04-09T13:28:15;2.88;;;2.58;;
78581;SDS011;67878;46.242;5.974;2023-04-09T13:30:40;3.63;;;3.05;;
78581;SDS011;67878;46.242;5.974;2023-04-09T13:33:06;3.28;;;2.80;;
78581;SDS011;67878;46.242;5.974;2023-04-09T13:35:31;4.70;;;2.97;;
78581;SDS011;67878;46.242;5.974;2023-04-09T13:37:59;3.03;;;2.70;;
78581;SDS011;67878;46.242;5.974;2023-04-09T13:40:27;4.18;;;2.90;;
78581;SDS011;67878;46.242;5.974;2023-04-09T13:42:52;2.72;;;2.50;;
78581;SDS011;67878;46.242;5.974;2023-04-09T13:45:19;3.45;;;2.80;;
78581;SDS011;67878;46.242;5.974;2023-04-09T13:47:48;2.83;;;2.63;;
78581;SDS011;67878;46.242;5.974;2023-04-09T13:50:15;3.35;;;2.65;;
78581;SDS011;67878;46.242;5.974;2023-04-09T13:52:44;2.80;;;2.33;;
78581;SDS011;67878;46.242;5.974;2023-04-09T13:57:40;2.85;;;2.60;;
78581;SDS011;67878;46.242;5.974;2023-04-09T14:00:07;3.17;;;2.83;;
78581;SDS011;67878;46.242;5.974;2023-04-09T14:02:36;4.00;;;2.63;;
78581;SDS011;67878;46.242;5.974;2023-04-09T14:05:01;2.78;;;2.53;;
78581;SDS011;67878;46.242;5.974;2023-04-09T14:07:27;4.32;;;2.70;;
78581;SDS011;67878;46.242;5.974;2023-04-09T14:09:53;3.53;;;2.72;;
78581;SDS011;67878;46.242;5.974;2023-04-09T14:12:18;2.85;;;2.53;;
78581;SDS011;67878;46.242;5.974;2023-04-09T14:14:44;2.53;;;2.33;;
78581;SDS011;67878;46.242;5.974;2023-04-09T14:17:09;2.60;;;2.40;;
78581;SDS011;67878;46.242;5.974;2023-04-09T14:19:35;3.13;;;2.83;;
78581;SDS011;67878;46.242;5.974;2023-04-09T14:22:00;2.50;;;2.22;;
78581;SDS011;67878;46.242;5.974;2023-04-09T14:24:25;2.70;;;2.47;;
78581;SDS011;67878;46.242;5.974;2023-04-09T14:26:51;2.90;;;2.58;;
78581;SDS011;67878;46.242;5.974;2023-04-09T14:29:19;2.60;;;2.13;;
78581;SDS011;67878;46.242;5.974;2023-04-09T14:31:49;2.75;;;2.55;;
78581;SDS011;67878;46.242;5.974;2023-04-09T14:34:18;3.05;;;2.60;;
78581;SDS011;67878;46.242;5.974;2023-04-09T14:36:46;2.63;;;2.42;;
78581;SDS011;67878;46.242;5.974;2023-04-09T14:39:13;3.05;;;2.50;;
78581;SDS011;67878;46.242;5.974;2023-04-09T14:41:40;2.50;;;2.30;;
78581;SDS011;67878;46.242;5.974;2023-04-09T14:44:05;3.00;;;2.80;;
78581;SDS011;67878;46.242;5.974;2023-04-09T14:46:31;2.60;;;2.40;;
78581;SDS011;67878;46.242;5.974;2023-04-09T14:48:56;2.80;;;2.55;;
78581;SDS011;67878;46.242;5.974;2023-04-09T14:51:21;2.83;;;2.60;;
78581;SDS011;67878;46.242;5.974;2023-04-09T14:53:47;2.72;;;2.42;;
78581;SDS011;67878;46.242;5.974;2023-04-09T14:56:12;3.50;;;2.75;;
78581;SDS011;67878;46.242;5.974;2023-04-09T14:58:38;2.53;;;2.15;;
78581;SDS011;67878;46.242;5.974;2023-04-09T15:01:05;2.65;;;2.45;;
78581;SDS011;67878;46.242;5.974;2023-04-09T15:03:34;2.63;;;2.42;;
78581;SDS011;67878;46.242;5.974;2023-04-09T15:06:10;3.17;;;2.42;;
78581;SDS011;67878;46.242;5.974;2023-04-09T15:08:37;2.80;;;2.60;;
78581;SDS011;67878;46.242;5.974;2023-04-09T15:11:03;2.45;;;2.10;;
78581;SDS011;67878;46.242;5.974;2023-04-09T15:13:30;2.58;;;2.38;;
78581;SDS011;67878;46.242;5.974;2023-04-09T15:15:58;2.60;;;2.30;;
78581;SDS011;67878;46.242;5.974;2023-04-09T15:18:28;2.50;;;2.30;;
78581;SDS011;67878;46.242;5.974;2023-04-09T15:20:58;2.30;;;2.10;;
78581;SDS011;67878;46.242;5.974;2023-04-09T15:23:27;3.28;;;2.40;;